sensor_id;sensor_type;location;lat;lon;timestamp;temperature;humidity
7360;DHT22;3720;48.274;7.796;2023-05-09T00:02:15;16.80;99.90
7360;DHT22;3720;48.274;7.796;2023-05-09T00:04:49;16.70;99.90
7360;DHT22;3720;48.274;7.796;2023-05-09T00:07:21;16.70;99.90
7360;DHT22;3720;48.274;7.796;2023-05-09T00:09:52;16.70;99.90
7360;DHT22;3720;48.274;7.796;2023-05-09T00:12:24;16.70;99.90
7360;DHT22;3720;48.274;7.796;2023-05-09T00:14:57;16.70;99.90
7360;DHT22;3720;48.274;7.796;2023-05-09T00:17:30;16.70;99.90
7360;DHT22;3720;48.274;7.796;2023-05-09T00:20:05;16.70;99.90
7360;DHT22;3720;48.274;7.796;2023-05-09T00:22:40;16.70;99.90
7360;DHT22;3720;48.274;7.796;2023-05-09T00:25:12;16.70;99.90
7360;DHT22;3720;48.274;7.796;2023-05-09T00:27:44;16.70;99.90
7360;DHT22;3720;48.274;7.796;2023-05-09T00:30:16;16.60;99.90
7360;DHT22;3720;48.274;7.796;2023-05-09T00:32:47;16.60;99.90
7360;DHT22;3720;48.274;7.796;2023-05-09T00:35:21;16.60;99.90
7360;DHT22;3720;48.274;7.796;2023-05-09T00:37:53;16.60;99.90
7360;DHT22;3720;48.274;7.796;2023-05-09T00:40:25;16.60;99.90
7360;DHT22;3720;48.274;7.796;2023-05-09T00:42:57;16.60;99.90
7360;DHT22;3720;48.274;7.796;2023-05-09T00:45:30;16.60;99.90
7360;DHT22;3720;48.274;7.796;2023-05-09T00:48:01;16.60;99.90
7360;DHT22;3720;48.274;7.796;2023-05-09T00:50:35;16.70;99.90
7360;DHT22;3720;48.274;7.796;2023-05-09T00:53:07;16.60;99.90
7360;DHT22;3720;48.274;7.796;2023-05-09T00:55:40;16.70;99.90
7360;DHT22;3720;48.274;7.796;2023-05-09T00:58:12;16.60;99.90
7360;DHT22;3720;48.274;7.796;2023-05-09T01:00:44;16.70;99.90
7360;DHT22;3720;48.274;7.796;2023-05-09T01:03:16;16.70;99.90
7360;DHT22;3720;48.274;7.796;2023-05-09T01:05:55;16.70;99.90
7360;DHT22;3720;48.274;7.796;2023-05-09T01:08:43;16.70;99.90
7360;DHT22;3720;48.274;7.796;2023-05-09T01:11:24;16.70;99.90
7360;DHT22;3720;48.274;7.796;2023-05-09T01:14:07;16.70;99.90
7360;DHT22;3720;48.274;7.796;2023-05-09T01:16:49;16.60;99.90
7360;DHT22;3720;48.274;7.796;2023-05-09T01:19:40;16.60;99.90
7360;DHT22;3720;48.274;7.796;2023-05-09T01:22:19;16.60;99.90
7360;DHT22;3720;48.274;7.796;2023-05-09T01:25:05;16.70;99.90
7360;DHT22;3720;48.274;7.796;2023-05-09T01:27:45;16.70;99.90
7360;DHT22;3720;48.274;7.796;2023-05-09T01:30:21;16.80;99.90
7360;DHT22;3720;48.274;7.796;2023-05-09T01:32:58;16.80;99.90
7360;DHT22;3720;48.274;7.796;2023-05-09T01:35:32;16.80;99.90
7360;DHT22;3720;48.274;7.796;2023-05-09T01:38:10;16.70;99.90
7360;DHT22;3720;48.274;7.796;2023-05-09T01:40:46;16.60;99.90
7360;DHT22;3720;48.274;7.796;2023-05-09T01:43:21;16.60;99.90
7360;DHT22;3720;48.274;7.796;2023-05-09T01:45:56;16.60;99.90
7360;DHT22;3720;48.274;7.796;2023-05-09T01:48:30;16.60;99.90
7360;DHT22;3720;48.274;7.796;2023-05-09T01:51:03;16.50;99.90
7360;DHT22;3720;48.274;7.796;2023-05-09T01:53:35;16.40;99.90
7360;DHT22;3720;48.274;7.796;2023-05-09T01:56:08;16.50;99.90
7360;DHT22;3720;48.274;7.796;2023-05-09T01:58:42;16.50;99.90
7360;DHT22;3720;48.274;7.796;2023-05-09T02:01:19;16.40;99.90
7360;DHT22;3720;48.274;7.796;2023-05-09T02:03:53;16.40;99.90
7360;DHT22;3720;48.274;7.796;2023-05-09T02:06:26;16.40;99.90
7360;DHT22;3720;48.274;7.796;2023-05-09T02:09:00;16.30;99.90
7360;DHT22;3720;48.274;7.796;2023-05-09T02:11:32;16.40;99.90
7360;DHT22;3720;48.274;7.796;2023-05-09T02:14:04;16.40;99.90
7360;DHT22;3720;48.274;7.796;2023-05-09T02:16:38;16.40;99.90
7360;DHT22;3720;48.274;7.796;2023-05-09T02:19:10;16.50;99.90
7360;DHT22;3720;48.274;7.796;2023-05-09T02:21:42;16.60;99.90
7360;DHT22;3720;48.274;7.796;2023-05-09T02:24:14;16.60;99.90
7360;DHT22;3720;48.274;7.796;2023-05-09T02:26:46;16.60;99.90
7360;DHT22;3720;48.274;7.796;2023-05-09T02:29:21;16.50;99.90
7360;DHT22;3720;48.274;7.796;2023-05-09T02:31:57;16.50;99.90
7360;DHT22;3720;48.274;7.796;2023-05-09T02:34:31;16.50;99.90
7360;DHT22;3720;48.274;7.796;2023-05-09T02:37:04;16.40;99.90
7360;DHT22;3720;48.274;7.796;2023-05-09T02:39:36;16.50;99.90
7360;DHT22;3720;48.274;7.796;2023-05-09T02:42:09;16.50;99.90
7360;DHT22;3720;48.274;7.796;2023-05-09T02:44:41;16.50;99.90
7360;DHT22;3720;48.274;7.796;2023-05-09T02:47:15;16.40;99.90
7360;DHT22;3720;48.274;7.796;2023-05-09T02:49:46;16.50;99.90
7360;DHT22;3720;48.274;7.796;2023-05-09T02:52:19;16.50;99.90
7360;DHT22;3720;48.274;7.796;2023-05-09T02:54:51;16.40;99.90
7360;DHT22;3720;48.274;7.796;2023-05-09T02:57:22;16.40;99.90
7360;DHT22;3720;48.274;7.796;2023-05-09T02:59:54;16.40;99.90
7360;DHT22;3720;48.274;7.796;2023-05-09T03:02:28;16.40;99.90
7360;DHT22;3720;48.274;7.796;2023-05-09T03:05:00;16.40;99.90
7360;DHT22;3720;48.274;7.796;2023-05-09T03:07:32;16.40;99.90
7360;DHT22;3720;48.274;7.796;2023-05-09T03:10:05;16.40;99.90
7360;DHT22;3720;48.274;7.796;2023-05-09T03:12:37;16.40;99.90
7360;DHT22;3720;48.274;7.796;2023-05-09T03:15:13;16.40;99.90
7360;DHT22;3720;48.274;7.796;2023-05-09T03:17:46;16.40;99.90
7360;DHT22;3720;48.274;7.796;2023-05-09T03:20:18;16.40;99.90
7360;DHT22;3720;48.274;7.796;2023-05-09T03:22:50;16.40;99.90
7360;DHT22;3720;48.274;7.796;2023-05-09T03:25:22;16.50;99.90
7360;DHT22;3720;48.274;7.796;2023-05-09T03:27:54;16.40;99.90
7360;DHT22;3720;48.274;7.796;2023-05-09T03:30:25;16.40;99.90
7360;DHT22;3720;48.274;7.796;2023-05-09T03:32:59;16.50;99.90
7360;DHT22;3720;48.274;7.796;2023-05-09T03:35:31;16.40;99.90
7360;DHT22;3720;48.274;7.796;2023-05-09T03:38:03;16.40;99.90
7360;DHT22;3720;48.274;7.796;2023-05-09T03:40:35;16.40;99.90
7360;DHT22;3720;48.274;7.796;2023-05-09T03:43:07;16.30;99.90
7360;DHT22;3720;48.274;7.796;2023-05-09T03:45:39;16.30;99.90
7360;DHT22;3720;48.274;7.796;2023-05-09T03:48:12;16.30;99.90
7360;DHT22;3720;48.274;7.796;2023-05-09T03:50:44;16.30;99.90
7360;DHT22;3720;48.274;7.796;2023-05-09T03:53:16;16.30;99.90
7360;DHT22;3720;48.274;7.796;2023-05-09T03:55:48;16.20;99.90
7360;DHT22;3720;48.274;7.796;2023-05-09T03:58:20;16.20;99.90
7360;DHT22;3720;48.274;7.796;2023-05-09T04:00:52;16.10;99.90
7360;DHT22;3720;48.274;7.796;2023-05-09T04:03:25;16.10;99.90
7360;DHT22;3720;48.274;7.796;2023-05-09T04:05:57;16.10;99.90
7360;DHT22;3720;48.274;7.796;2023-05-09T04:08:30;16.10;99.90
7360;DHT22;3720;48.274;7.796;2023-05-09T04:11:02;16.00;99.90
7360;DHT22;3720;48.274;7.796;2023-05-09T04:13:35;16.00;99.90
7360;DHT22;3720;48.274;7.796;2023-05-09T04:16:07;16.10;99.90
7360;DHT22;3720;48.274;7.796;2023-05-09T04:18:41;16.00;99.90
7360;DHT22;3720;48.274;7.796;2023-05-09T04:21:12;15.90;99.90
7360;DHT22;3720;48.274;7.796;2023-05-09T04:23:44;15.90;99.90
7360;DHT22;3720;48.274;7.796;2023-05-09T04:26:16;15.90;99.90
7360;DHT22;3720;48.274;7.796;2023-05-09T04:28:48;16.00;99.90
7360;DHT22;3720;48.274;7.796;2023-05-09T04:31:20;16.00;99.90
7360;DHT22;3720;48.274;7.796;2023-05-09T04:33:53;15.90;99.90
7360;DHT22;3720;48.274;7.796;2023-05-09T04:36:27;16.00;99.90
7360;DHT22;3720;48.274;7.796;2023-05-09T04:39:01;16.10;99.90
7360;DHT22;3720;48.274;7.796;2023-05-09T04:41:34;16.10;99.90
7360;DHT22;3720;48.274;7.796;2023-05-09T04:44:06;16.10;99.90
7360;DHT22;3720;48.274;7.796;2023-05-09T04:46:38;16.10;99.90
7360;DHT22;3720;48.274;7.796;2023-05-09T04:49:12;16.20;99.90
7360;DHT22;3720;48.274;7.796;2023-05-09T04:51:44;16.20;99.90
7360;DHT22;3720;48.274;7.796;2023-05-09T04:54:16;16.20;99.90
7360;DHT22;3720;48.274;7.796;2023-05-09T04:56:47;16.20;99.90
7360;DHT22;3720;48.274;7.796;2023-05-09T04:59:19;16.40;99.90
7360;DHT22;3720;48.274;7.796;2023-05-09T05:01:51;16.60;99.90
7360;DHT22;3720;48.274;7.796;2023-05-09T05:04:25;16.90;99.90
7360;DHT22;3720;48.274;7.796;2023-05-09T05:06:57;17.00;99.90
7360;DHT22;3720;48.274;7.796;2023-05-09T05:09:29;17.20;99.90
7360;DHT22;3720;48.274;7.796;2023-05-09T05:12:01;17.40;99.90
7360;DHT22;3720;48.274;7.796;2023-05-09T05:14:36;17.40;99.90
7360;DHT22;3720;48.274;7.796;2023-05-09T05:17:08;17.40;99.90
7360;DHT22;3720;48.274;7.796;2023-05-09T05:19:41;17.50;99.90
7360;DHT22;3720;48.274;7.796;2023-05-09T05:22:13;17.50;99.90
7360;DHT22;3720;48.274;7.796;2023-05-09T05:24:45;17.50;99.90
7360;DHT22;3720;48.274;7.796;2023-05-09T05:27:17;17.50;99.90
7360;DHT22;3720;48.274;7.796;2023-05-09T05:29:49;17.50;99.90
7360;DHT22;3720;48.274;7.796;2023-05-09T05:32:21;17.40;99.90
7360;DHT22;3720;48.274;7.796;2023-05-09T05:34:54;17.50;99.90
7360;DHT22;3720;48.274;7.796;2023-05-09T05:37:26;17.40;99.90
7360;DHT22;3720;48.274;7.796;2023-05-09T05:39:58;17.50;99.90
7360;DHT22;3720;48.274;7.796;2023-05-09T05:42:30;17.50;99.90
7360;DHT22;3720;48.274;7.796;2023-05-09T05:45:03;17.40;99.90
7360;DHT22;3720;48.274;7.796;2023-05-09T05:47:36;17.30;99.90
7360;DHT22;3720;48.274;7.796;2023-05-09T05:50:09;17.10;99.90
7360;DHT22;3720;48.274;7.796;2023-05-09T05:52:41;17.10;99.90
7360;DHT22;3720;48.274;7.796;2023-05-09T05:55:13;17.00;99.90
7360;DHT22;3720;48.274;7.796;2023-05-09T05:57:45;16.90;99.90
7360;DHT22;3720;48.274;7.796;2023-05-09T06:00:18;16.90;99.90
7360;DHT22;3720;48.274;7.796;2023-05-09T06:02:50;16.90;99.90
7360;DHT22;3720;48.274;7.796;2023-05-09T06:05:24;16.90;99.90
7360;DHT22;3720;48.274;7.796;2023-05-09T06:07:56;17.00;99.90
7360;DHT22;3720;48.274;7.796;2023-05-09T06:10:27;17.00;99.90
7360;DHT22;3720;48.274;7.796;2023-05-09T06:12:59;17.10;99.90
7360;DHT22;3720;48.274;7.796;2023-05-09T06:15:31;17.10;99.90
7360;DHT22;3720;48.274;7.796;2023-05-09T06:18:03;17.20;99.90
7360;DHT22;3720;48.274;7.796;2023-05-09T06:20:37;17.30;99.90
7360;DHT22;3720;48.274;7.796;2023-05-09T06:23:09;17.40;99.90
7360;DHT22;3720;48.274;7.796;2023-05-09T06:25:40;17.50;99.90
7360;DHT22;3720;48.274;7.796;2023-05-09T06:28:12;17.50;99.90
7360;DHT22;3720;48.274;7.796;2023-05-09T06:30:44;17.50;99.90
7360;DHT22;3720;48.274;7.796;2023-05-09T06:33:16;17.60;99.90
7360;DHT22;3720;48.274;7.796;2023-05-09T06:35:49;17.60;99.90
7360;DHT22;3720;48.274;7.796;2023-05-09T06:38:21;17.60;99.90
7360;DHT22;3720;48.274;7.796;2023-05-09T06:40:53;17.80;99.90
7360;DHT22;3720;48.274;7.796;2023-05-09T06:43:25;17.70;99.90
7360;DHT22;3720;48.274;7.796;2023-05-09T06:45:57;17.80;99.90
7360;DHT22;3720;48.274;7.796;2023-05-09T06:48:29;17.80;99.90
7360;DHT22;3720;48.274;7.796;2023-05-09T06:51:02;17.80;99.90
7360;DHT22;3720;48.274;7.796;2023-05-09T06:53:34;17.80;99.90
7360;DHT22;3720;48.274;7.796;2023-05-09T06:56:06;17.70;99.90
7360;DHT22;3720;48.274;7.796;2023-05-09T06:58:38;17.80;99.90
7360;DHT22;3720;48.274;7.796;2023-05-09T07:01:10;17.80;99.90
7360;DHT22;3720;48.274;7.796;2023-05-09T07:03:43;17.90;99.90
7360;DHT22;3720;48.274;7.796;2023-05-09T07:06:18;18.00;99.90
7360;DHT22;3720;48.274;7.796;2023-05-09T07:08:50;18.10;99.90
7360;DHT22;3720;48.274;7.796;2023-05-09T07:11:22;18.20;99.90
7360;DHT22;3720;48.274;7.796;2023-05-09T07:13:53;18.30;99.90
7360;DHT22;3720;48.274;7.796;2023-05-09T07:16:25;18.50;99.90
7360;DHT22;3720;48.274;7.796;2023-05-09T07:18:58;18.70;99.90
7360;DHT22;3720;48.274;7.796;2023-05-09T07:21:32;18.80;99.90
7360;DHT22;3720;48.274;7.796;2023-05-09T07:24:05;18.90;99.90
7360;DHT22;3720;48.274;7.796;2023-05-09T07:26:36;19.00;99.90
7360;DHT22;3720;48.274;7.796;2023-05-09T07:29:08;19.00;99.90
7360;DHT22;3720;48.274;7.796;2023-05-09T07:31:40;18.90;99.90
7360;DHT22;3720;48.274;7.796;2023-05-09T07:34:12;18.90;99.90
7360;DHT22;3720;48.274;7.796;2023-05-09T07:36:45;18.90;99.90
7360;DHT22;3720;48.274;7.796;2023-05-09T07:39:17;18.90;99.90
7360;DHT22;3720;48.274;7.796;2023-05-09T07:41:49;18.90;99.90
7360;DHT22;3720;48.274;7.796;2023-05-09T07:44:21;19.00;99.90
7360;DHT22;3720;48.274;7.796;2023-05-09T07:46:53;19.00;99.90
7360;DHT22;3720;48.274;7.796;2023-05-09T07:49:25;18.90;99.90
7360;DHT22;3720;48.274;7.796;2023-05-09T07:51:59;18.80;99.90
7360;DHT22;3720;48.274;7.796;2023-05-09T07:54:30;18.80;99.90
7360;DHT22;3720;48.274;7.796;2023-05-09T07:57:02;18.80;99.90
7360;DHT22;3720;48.274;7.796;2023-05-09T07:59:34;19.00;99.90
7360;DHT22;3720;48.274;7.796;2023-05-09T08:02:06;19.10;99.90
7360;DHT22;3720;48.274;7.796;2023-05-09T08:04:38;19.10;99.90
7360;DHT22;3720;48.274;7.796;2023-05-09T08:07:11;19.10;99.90
7360;DHT22;3720;48.274;7.796;2023-05-09T08:09:43;19.30;99.90
7360;DHT22;3720;48.274;7.796;2023-05-09T08:12:15;19.40;99.90
7360;DHT22;3720;48.274;7.796;2023-05-09T08:14:47;19.50;99.90
7360;DHT22;3720;48.274;7.796;2023-05-09T08:17:19;19.50;99.90
7360;DHT22;3720;48.274;7.796;2023-05-09T08:19:51;19.40;99.90
7360;DHT22;3720;48.274;7.796;2023-05-09T08:22:24;19.40;99.90
7360;DHT22;3720;48.274;7.796;2023-05-09T08:24:56;19.40;99.90
7360;DHT22;3720;48.274;7.796;2023-05-09T08:27:28;19.50;99.90
7360;DHT22;3720;48.274;7.796;2023-05-09T08:30:00;19.40;99.90
7360;DHT22;3720;48.274;7.796;2023-05-09T08:32:31;19.40;99.90
7360;DHT22;3720;48.274;7.796;2023-05-09T08:35:04;19.40;99.90
7360;DHT22;3720;48.274;7.796;2023-05-09T08:37:39;19.50;99.90
7360;DHT22;3720;48.274;7.796;2023-05-09T08:40:11;19.50;99.90
7360;DHT22;3720;48.274;7.796;2023-05-09T08:42:44;19.60;99.90
7360;DHT22;3720;48.274;7.796;2023-05-09T08:45:24;19.50;99.90
7360;DHT22;3720;48.274;7.796;2023-05-09T08:47:57;19.60;99.90
7360;DHT22;3720;48.274;7.796;2023-05-09T08:50:30;19.70;99.90
7360;DHT22;3720;48.274;7.796;2023-05-09T08:53:03;19.80;99.90
7360;DHT22;3720;48.274;7.796;2023-05-09T08:55:36;19.90;99.90
7360;DHT22;3720;48.274;7.796;2023-05-09T08:58:08;19.90;99.90
7360;DHT22;3720;48.274;7.796;2023-05-09T09:00:41;20.10;99.90
7360;DHT22;3720;48.274;7.796;2023-05-09T09:03:13;20.00;99.90
7360;DHT22;3720;48.274;7.796;2023-05-09T09:05:46;20.00;99.90
7360;DHT22;3720;48.274;7.796;2023-05-09T09:08:21;20.00;99.90
7360;DHT22;3720;48.274;7.796;2023-05-09T09:10:53;20.00;99.90
7360;DHT22;3720;48.274;7.796;2023-05-09T09:13:25;20.10;99.90
7360;DHT22;3720;48.274;7.796;2023-05-09T09:15:58;20.10;99.90
7360;DHT22;3720;48.274;7.796;2023-05-09T09:18:32;20.10;99.90
7360;DHT22;3720;48.274;7.796;2023-05-09T09:21:07;20.20;99.90
7360;DHT22;3720;48.274;7.796;2023-05-09T09:23:42;20.30;99.90
7360;DHT22;3720;48.274;7.796;2023-05-09T09:26:15;20.50;99.90
7360;DHT22;3720;48.274;7.796;2023-05-09T09:28:47;20.50;99.90
7360;DHT22;3720;48.274;7.796;2023-05-09T09:31:20;20.50;99.90
7360;DHT22;3720;48.274;7.796;2023-05-09T09:33:58;20.60;99.90
7360;DHT22;3720;48.274;7.796;2023-05-09T09:36:31;20.80;99.90
7360;DHT22;3720;48.274;7.796;2023-05-09T09:39:05;20.90;99.90
7360;DHT22;3720;48.274;7.796;2023-05-09T09:41:39;21.00;99.90
7360;DHT22;3720;48.274;7.796;2023-05-09T09:44:12;21.00;99.90
7360;DHT22;3720;48.274;7.796;2023-05-09T09:46:46;21.00;99.90
7360;DHT22;3720;48.274;7.796;2023-05-09T09:49:21;21.10;99.90
7360;DHT22;3720;48.274;7.796;2023-05-09T09:51:55;21.10;99.90
7360;DHT22;3720;48.274;7.796;2023-05-09T09:54:31;21.30;99.90
7360;DHT22;3720;48.274;7.796;2023-05-09T09:57:03;21.50;99.90
7360;DHT22;3720;48.274;7.796;2023-05-09T09:59:35;21.60;99.90
7360;DHT22;3720;48.274;7.796;2023-05-09T10:02:07;21.60;99.90
7360;DHT22;3720;48.274;7.796;2023-05-09T10:04:43;21.70;99.90
7360;DHT22;3720;48.274;7.796;2023-05-09T10:07:15;21.80;99.90
7360;DHT22;3720;48.274;7.796;2023-05-09T10:09:48;21.90;99.90
7360;DHT22;3720;48.274;7.796;2023-05-09T10:12:20;22.10;99.90
7360;DHT22;3720;48.274;7.796;2023-05-09T10:14:53;21.90;99.90
7360;DHT22;3720;48.274;7.796;2023-05-09T10:17:26;21.90;99.90
7360;DHT22;3720;48.274;7.796;2023-05-09T10:20:03;21.80;99.90
7360;DHT22;3720;48.274;7.796;2023-05-09T10:22:38;21.90;99.90
7360;DHT22;3720;48.274;7.796;2023-05-09T10:25:18;21.80;99.90
7360;DHT22;3720;48.274;7.796;2023-05-09T10:27:53;21.80;99.90
7360;DHT22;3720;48.274;7.796;2023-05-09T10:30:31;21.90;99.90
7360;DHT22;3720;48.274;7.796;2023-05-09T10:33:07;22.10;99.90
7360;DHT22;3720;48.274;7.796;2023-05-09T10:35:44;22.20;99.90
7360;DHT22;3720;48.274;7.796;2023-05-09T10:38:17;22.40;99.90
7360;DHT22;3720;48.274;7.796;2023-05-09T10:40:52;22.50;99.90
7360;DHT22;3720;48.274;7.796;2023-05-09T10:43:25;22.60;99.90
7360;DHT22;3720;48.274;7.796;2023-05-09T10:45:57;22.70;99.90
7360;DHT22;3720;48.274;7.796;2023-05-09T10:48:31;22.90;99.90
7360;DHT22;3720;48.274;7.796;2023-05-09T10:51:04;22.80;99.90
7360;DHT22;3720;48.274;7.796;2023-05-09T10:53:42;22.70;99.90
7360;DHT22;3720;48.274;7.796;2023-05-09T10:56:27;22.60;99.90
7360;DHT22;3720;48.274;7.796;2023-05-09T10:59:01;22.60;99.90
7360;DHT22;3720;48.274;7.796;2023-05-09T11:01:35;22.50;99.90
7360;DHT22;3720;48.274;7.796;2023-05-09T11:04:10;22.30;99.90
7360;DHT22;3720;48.274;7.796;2023-05-09T11:06:46;22.40;99.90
7360;DHT22;3720;48.274;7.796;2023-05-09T11:09:26;22.50;99.90
7360;DHT22;3720;48.274;7.796;2023-05-09T11:12:09;22.50;99.90
7360;DHT22;3720;48.274;7.796;2023-05-09T11:14:42;22.50;99.90
7360;DHT22;3720;48.274;7.796;2023-05-09T11:17:28;22.50;99.90
7360;DHT22;3720;48.274;7.796;2023-05-09T11:20:03;22.50;99.90
7360;DHT22;3720;48.274;7.796;2023-05-09T11:22:40;22.60;99.90
7360;DHT22;3720;48.274;7.796;2023-05-09T11:25:13;22.70;99.90
7360;DHT22;3720;48.274;7.796;2023-05-09T11:27:48;22.80;99.90
7360;DHT22;3720;48.274;7.796;2023-05-09T11:30:21;23.00;99.90
7360;DHT22;3720;48.274;7.796;2023-05-09T11:32:54;23.10;99.90
7360;DHT22;3720;48.274;7.796;2023-05-09T11:35:28;23.00;99.90
7360;DHT22;3720;48.274;7.796;2023-05-09T11:38:02;23.00;99.90
7360;DHT22;3720;48.274;7.796;2023-05-09T11:40:34;23.00;99.90
7360;DHT22;3720;48.274;7.796;2023-05-09T11:43:08;22.90;99.90
7360;DHT22;3720;48.274;7.796;2023-05-09T11:45:40;23.00;99.90
7360;DHT22;3720;48.274;7.796;2023-05-09T11:48:12;22.80;99.90
7360;DHT22;3720;48.274;7.796;2023-05-09T11:50:46;22.80;99.90
7360;DHT22;3720;48.274;7.796;2023-05-09T11:53:19;22.80;99.90
7360;DHT22;3720;48.274;7.796;2023-05-09T11:55:51;22.90;99.90
7360;DHT22;3720;48.274;7.796;2023-05-09T11:58:25;23.00;99.90
7360;DHT22;3720;48.274;7.796;2023-05-09T12:00:59;23.00;99.90
7360;DHT22;3720;48.274;7.796;2023-05-09T12:03:31;23.10;99.90
7360;DHT22;3720;48.274;7.796;2023-05-09T12:06:04;23.20;99.90
7360;DHT22;3720;48.274;7.796;2023-05-09T12:08:36;23.30;99.90
7360;DHT22;3720;48.274;7.796;2023-05-09T12:11:09;23.30;99.90
7360;DHT22;3720;48.274;7.796;2023-05-09T12:13:46;23.30;99.90
7360;DHT22;3720;48.274;7.796;2023-05-09T12:16:19;23.40;99.90
7360;DHT22;3720;48.274;7.796;2023-05-09T12:18:51;23.50;99.90
7360;DHT22;3720;48.274;7.796;2023-05-09T12:21:24;23.50;99.90
7360;DHT22;3720;48.274;7.796;2023-05-09T12:23:58;23.60;99.90
7360;DHT22;3720;48.274;7.796;2023-05-09T12:26:29;23.70;99.90
7360;DHT22;3720;48.274;7.796;2023-05-09T12:29:03;23.70;99.90
7360;DHT22;3720;48.274;7.796;2023-05-09T12:31:35;23.70;99.90
7360;DHT22;3720;48.274;7.796;2023-05-09T12:34:07;23.60;99.90
7360;DHT22;3720;48.274;7.796;2023-05-09T12:36:42;23.60;99.90
7360;DHT22;3720;48.274;7.796;2023-05-09T12:39:20;23.70;99.90
7360;DHT22;3720;48.274;7.796;2023-05-09T12:41:52;23.80;99.90
7360;DHT22;3720;48.274;7.796;2023-05-09T12:44:26;23.80;99.90
7360;DHT22;3720;48.274;7.796;2023-05-09T12:47:00;23.80;99.90
7360;DHT22;3720;48.274;7.796;2023-05-09T12:49:35;23.90;99.90
7360;DHT22;3720;48.274;7.796;2023-05-09T12:52:16;24.00;99.90
7360;DHT22;3720;48.274;7.796;2023-05-09T12:54:48;24.00;99.90
7360;DHT22;3720;48.274;7.796;2023-05-09T12:57:24;23.90;99.90
7360;DHT22;3720;48.274;7.796;2023-05-09T12:59:59;23.90;99.90
7360;DHT22;3720;48.274;7.796;2023-05-09T13:02:35;23.80;99.90
7360;DHT22;3720;48.274;7.796;2023-05-09T13:05:10;23.70;99.90
7360;DHT22;3720;48.274;7.796;2023-05-09T13:07:46;23.60;99.90
7360;DHT22;3720;48.274;7.796;2023-05-09T13:10:23;23.60;99.90
7360;DHT22;3720;48.274;7.796;2023-05-09T13:12:56;23.60;99.90
7360;DHT22;3720;48.274;7.796;2023-05-09T13:15:30;23.60;99.90
7360;DHT22;3720;48.274;7.796;2023-05-09T13:18:03;23.60;99.90
7360;DHT22;3720;48.274;7.796;2023-05-09T13:20:35;23.50;99.90
7360;DHT22;3720;48.274;7.796;2023-05-09T13:23:07;23.60;99.90
7360;DHT22;3720;48.274;7.796;2023-05-09T13:25:39;23.60;99.90
7360;DHT22;3720;48.274;7.796;2023-05-09T13:28:11;23.70;99.90
7360;DHT22;3720;48.274;7.796;2023-05-09T13:30:44;23.60;99.90
7360;DHT22;3720;48.274;7.796;2023-05-09T13:33:16;23.50;99.90
7360;DHT22;3720;48.274;7.796;2023-05-09T13:35:48;23.50;99.90
7360;DHT22;3720;48.274;7.796;2023-05-09T13:38:20;23.40;99.90
7360;DHT22;3720;48.274;7.796;2023-05-09T13:40:52;23.30;99.90
7360;DHT22;3720;48.274;7.796;2023-05-09T13:43:24;23.20;99.90
7360;DHT22;3720;48.274;7.796;2023-05-09T13:45:58;23.20;99.90
7360;DHT22;3720;48.274;7.796;2023-05-09T13:48:30;23.20;99.90
7360;DHT22;3720;48.274;7.796;2023-05-09T13:51:02;23.20;99.90
7360;DHT22;3720;48.274;7.796;2023-05-09T13:53:35;23.20;99.90
7360;DHT22;3720;48.274;7.796;2023-05-09T13:56:08;23.20;99.90
7360;DHT22;3720;48.274;7.796;2023-05-09T13:58:40;23.30;99.90
7360;DHT22;3720;48.274;7.796;2023-05-09T14:01:13;23.40;99.90
7360;DHT22;3720;48.274;7.796;2023-05-09T14:03:45;23.30;99.90
7360;DHT22;3720;48.274;7.796;2023-05-09T14:06:18;23.20;99.90
7360;DHT22;3720;48.274;7.796;2023-05-09T14:08:50;23.10;99.90
7360;DHT22;3720;48.274;7.796;2023-05-09T14:11:22;23.10;99.90
7360;DHT22;3720;48.274;7.796;2023-05-09T14:13:55;23.00;99.90
7360;DHT22;3720;48.274;7.796;2023-05-09T14:16:29;23.00;99.90
7360;DHT22;3720;48.274;7.796;2023-05-09T14:19:01;23.00;99.90
7360;DHT22;3720;48.274;7.796;2023-05-09T14:21:33;22.90;99.90
7360;DHT22;3720;48.274;7.796;2023-05-09T14:24:05;22.90;99.90
7360;DHT22;3720;48.274;7.796;2023-05-09T14:26:37;22.80;99.90
7360;DHT22;3720;48.274;7.796;2023-05-09T14:29:10;22.70;99.90
7360;DHT22;3720;48.274;7.796;2023-05-09T14:31:43;22.60;99.90
7360;DHT22;3720;48.274;7.796;2023-05-09T14:34:15;22.60;99.90
7360;DHT22;3720;48.274;7.796;2023-05-09T14:36:47;22.50;99.90
7360;DHT22;3720;48.274;7.796;2023-05-09T14:39:19;22.40;99.90
7360;DHT22;3720;48.274;7.796;2023-05-09T14:41:51;22.40;99.90
7360;DHT22;3720;48.274;7.796;2023-05-09T14:44:23;22.20;99.90
7360;DHT22;3720;48.274;7.796;2023-05-09T14:46:57;22.10;99.90
7360;DHT22;3720;48.274;7.796;2023-05-09T14:49:29;22.10;99.90
7360;DHT22;3720;48.274;7.796;2023-05-09T14:52:01;21.90;99.90
7360;DHT22;3720;48.274;7.796;2023-05-09T14:54:33;21.70;99.90
7360;DHT22;3720;48.274;7.796;2023-05-09T14:57:05;21.50;99.90
7360;DHT22;3720;48.274;7.796;2023-05-09T14:59:38;21.50;99.90
7360;DHT22;3720;48.274;7.796;2023-05-09T15:02:11;21.30;99.90
7360;DHT22;3720;48.274;7.796;2023-05-09T15:04:43;21.20;99.90
7360;DHT22;3720;48.274;7.796;2023-05-09T15:07:15;21.00;99.90
7360;DHT22;3720;48.274;7.796;2023-05-09T15:09:47;20.90;99.90
7360;DHT22;3720;48.274;7.796;2023-05-09T15:12:19;20.70;99.90
7360;DHT22;3720;48.274;7.796;2023-05-09T15:14:51;20.50;99.90
7360;DHT22;3720;48.274;7.796;2023-05-09T15:17:25;20.30;99.90
7360;DHT22;3720;48.274;7.796;2023-05-09T15:19:57;20.10;99.90
7360;DHT22;3720;48.274;7.796;2023-05-09T15:22:29;20.00;99.90
7360;DHT22;3720;48.274;7.796;2023-05-09T15:25:03;19.90;99.90
7360;DHT22;3720;48.274;7.796;2023-05-09T15:27:35;19.90;99.90
7360;DHT22;3720;48.274;7.796;2023-05-09T15:30:09;19.90;99.90
7360;DHT22;3720;48.274;7.796;2023-05-09T15:32:42;19.80;99.90
7360;DHT22;3720;48.274;7.796;2023-05-09T15:35:14;19.80;99.90
7360;DHT22;3720;48.274;7.796;2023-05-09T15:37:47;19.60;99.90
7360;DHT22;3720;48.274;7.796;2023-05-09T15:40:19;19.60;99.90
7360;DHT22;3720;48.274;7.796;2023-05-09T15:42:51;19.60;99.90
7360;DHT22;3720;48.274;7.796;2023-05-09T15:45:23;19.60;99.90
7360;DHT22;3720;48.274;7.796;2023-05-09T15:47:58;19.60;99.90
7360;DHT22;3720;48.274;7.796;2023-05-09T15:50:30;19.50;99.90
7360;DHT22;3720;48.274;7.796;2023-05-09T15:53:03;19.50;99.90
7360;DHT22;3720;48.274;7.796;2023-05-09T15:55:35;19.40;99.90
7360;DHT22;3720;48.274;7.796;2023-05-09T15:58:07;19.40;99.90
7360;DHT22;3720;48.274;7.796;2023-05-09T16:00:40;19.30;99.90
7360;DHT22;3720;48.274;7.796;2023-05-09T16:03:13;19.30;99.90
7360;DHT22;3720;48.274;7.796;2023-05-09T16:05:45;19.20;99.90
7360;DHT22;3720;48.274;7.796;2023-05-09T16:08:17;19.10;99.90
7360;DHT22;3720;48.274;7.796;2023-05-09T16:10:50;19.10;99.90
7360;DHT22;3720;48.274;7.796;2023-05-09T16:13:22;19.10;99.90
7360;DHT22;3720;48.274;7.796;2023-05-09T16:15:54;19.00;99.90
7360;DHT22;3720;48.274;7.796;2023-05-09T16:18:27;18.90;99.90
7360;DHT22;3720;48.274;7.796;2023-05-09T16:20:59;18.80;99.90
7360;DHT22;3720;48.274;7.796;2023-05-09T16:23:31;18.70;99.90
7360;DHT22;3720;48.274;7.796;2023-05-09T16:26:03;18.50;99.90
7360;DHT22;3720;48.274;7.796;2023-05-09T16:28:35;18.30;99.90
7360;DHT22;3720;48.274;7.796;2023-05-09T16:31:09;18.10;99.90
7360;DHT22;3720;48.274;7.796;2023-05-09T16:33:42;18.00;99.90
7360;DHT22;3720;48.274;7.796;2023-05-09T16:36:16;17.80;99.90
7360;DHT22;3720;48.274;7.796;2023-05-09T16:38:48;17.60;99.90
7360;DHT22;3720;48.274;7.796;2023-05-09T16:41:20;17.50;99.90